sensor_id;sensor_type;location;lat;lon;timestamp;P1;durP1;ratioP1;P2;durP2;ratioP2
65896;SDS011;52677;50.898;10.854;2023-06-10T00:02:00;7.30;;;5.30;;
65896;SDS011;52677;50.898;10.854;2023-06-10T00:04:00;7.28;;;5.30;;
65896;SDS011;52677;50.898;10.854;2023-06-10T00:06:00;6.80;;;5.45;;
65896;SDS011;52677;50.898;10.854;2023-06-10T00:08:01;9.07;;;5.57;;
65896;SDS011;52677;50.898;10.854;2023-06-10T00:10:08;7.30;;;5.38;;
65896;SDS011;52677;50.898;10.854;2023-06-10T00:12:11;7.18;;;5.00;;
65896;SDS011;52677;50.898;10.854;2023-06-10T00:14:11;8.05;;;5.93;;
65896;SDS011;52677;50.898;10.854;2023-06-10T00:16:12;6.75;;;5.13;;
65896;SDS011;52677;50.898;10.854;2023-06-10T00:18:12;7.35;;;5.40;;
65896;SDS011;52677;50.898;10.854;2023-06-10T00:20:12;8.23;;;5.55;;
65896;SDS011;52677;50.898;10.854;2023-06-10T00:22:13;6.40;;;4.90;;
65896;SDS011;52677;50.898;10.854;2023-06-10T00:24:14;10.02;;;6.13;;
65896;SDS011;52677;50.898;10.854;2023-06-10T00:26:14;8.77;;;5.47;;
65896;SDS011;52677;50.898;10.854;2023-06-10T00:28:15;7.13;;;5.43;;
65896;SDS011;52677;50.898;10.854;2023-06-10T00:30:16;6.40;;;5.32;;
65896;SDS011;52677;50.898;10.854;2023-06-10T00:32:16;8.50;;;5.60;;
65896;SDS011;52677;50.898;10.854;2023-06-10T00:34:16;6.75;;;5.20;;
65896;SDS011;52677;50.898;10.854;2023-06-10T00:36:17;9.82;;;5.35;;
65896;SDS011;52677;50.898;10.854;2023-06-10T00:38:17;8.10;;;5.40;;
65896;SDS011;52677;50.898;10.854;2023-06-10T00:40:17;10.10;;;6.40;;
65896;SDS011;52677;50.898;10.854;2023-06-10T00:42:18;6.93;;;5.30;;
65896;SDS011;52677;50.898;10.854;2023-06-10T00:44:19;7.70;;;5.82;;
65896;SDS011;52677;50.898;10.854;2023-06-10T00:46:19;6.63;;;5.18;;
65896;SDS011;52677;50.898;10.854;2023-06-10T00:48:21;12.67;;;5.43;;
65896;SDS011;52677;50.898;10.854;2023-06-10T00:50:21;6.32;;;4.90;;
65896;SDS011;52677;50.898;10.854;2023-06-10T00:52:22;9.48;;;5.65;;
65896;SDS011;52677;50.898;10.854;2023-06-10T00:54:27;8.23;;;4.90;;
65896;SDS011;52677;50.898;10.854;2023-06-10T00:56:28;8.43;;;5.63;;
65896;SDS011;52677;50.898;10.854;2023-06-10T00:58:28;6.90;;;5.50;;
65896;SDS011;52677;50.898;10.854;2023-06-10T01:00:29;7.80;;;5.45;;
65896;SDS011;52677;50.898;10.854;2023-06-10T01:02:29;8.88;;;5.72;;
65896;SDS011;52677;50.898;10.854;2023-06-10T01:04:30;8.48;;;5.45;;
65896;SDS011;52677;50.898;10.854;2023-06-10T01:06:36;8.27;;;5.72;;
65896;SDS011;52677;50.898;10.854;2023-06-10T01:08:51;5.97;;;5.25;;
65896;SDS011;52677;50.898;10.854;2023-06-10T01:10:53;14.18;;;6.30;;
65896;SDS011;52677;50.898;10.854;2023-06-10T01:13:07;7.22;;;5.50;;
65896;SDS011;52677;50.898;10.854;2023-06-10T01:15:13;10.35;;;5.70;;
65896;SDS011;52677;50.898;10.854;2023-06-10T01:17:16;8.63;;;5.60;;
65896;SDS011;52677;50.898;10.854;2023-06-10T01:19:18;6.88;;;5.50;;
65896;SDS011;52677;50.898;10.854;2023-06-10T01:21:22;8.05;;;4.93;;
65896;SDS011;52677;50.898;10.854;2023-06-10T01:23:26;9.52;;;5.28;;
65896;SDS011;52677;50.898;10.854;2023-06-10T01:25:27;8.90;;;5.50;;
65896;SDS011;52677;50.898;10.854;2023-06-10T01:27:29;8.05;;;5.53;;
65896;SDS011;52677;50.898;10.854;2023-06-10T01:29:36;7.45;;;5.55;;
65896;SDS011;52677;50.898;10.854;2023-06-10T01:31:43;11.40;;;5.72;;
65896;SDS011;52677;50.898;10.854;2023-06-10T01:33:51;8.63;;;5.30;;
65896;SDS011;52677;50.898;10.854;2023-06-10T01:35:52;8.25;;;5.22;;
65896;SDS011;52677;50.898;10.854;2023-06-10T01:37:54;7.28;;;5.22;;
65896;SDS011;52677;50.898;10.854;2023-06-10T01:39:59;10.88;;;6.13;;
65896;SDS011;52677;50.898;10.854;2023-06-10T01:42:02;12.85;;;5.63;;
65896;SDS011;52677;50.898;10.854;2023-06-10T01:44:04;6.72;;;5.75;;
65896;SDS011;52677;50.898;10.854;2023-06-10T01:46:05;9.23;;;5.28;;
65896;SDS011;52677;50.898;10.854;2023-06-10T01:48:06;6.00;;;5.10;;
65896;SDS011;52677;50.898;10.854;2023-06-10T01:50:06;10.43;;;5.47;;
65896;SDS011;52677;50.898;10.854;2023-06-10T01:52:07;7.82;;;5.43;;
65896;SDS011;52677;50.898;10.854;2023-06-10T01:54:07;10.95;;;6.55;;
65896;SDS011;52677;50.898;10.854;2023-06-10T01:56:08;7.55;;;4.90;;
65896;SDS011;52677;50.898;10.854;2023-06-10T01:58:08;6.55;;;5.43;;
65896;SDS011;52677;50.898;10.854;2023-06-10T02:00:08;12.55;;;6.25;;
65896;SDS011;52677;50.898;10.854;2023-06-10T02:02:10;8.15;;;5.90;;
65896;SDS011;52677;50.898;10.854;2023-06-10T02:04:11;8.38;;;5.75;;
65896;SDS011;52677;50.898;10.854;2023-06-10T02:06:11;14.35;;;5.70;;
65896;SDS011;52677;50.898;10.854;2023-06-10T02:08:11;9.48;;;5.40;;
65896;SDS011;52677;50.898;10.854;2023-06-10T02:10:11;7.88;;;5.38;;
65896;SDS011;52677;50.898;10.854;2023-06-10T02:12:12;11.48;;;5.90;;
65896;SDS011;52677;50.898;10.854;2023-06-10T02:14:12;9.43;;;5.85;;
65896;SDS011;52677;50.898;10.854;2023-06-10T02:16:13;13.02;;;5.53;;
65896;SDS011;52677;50.898;10.854;2023-06-10T02:18:13;11.07;;;6.10;;
65896;SDS011;52677;50.898;10.854;2023-06-10T02:20:14;10.07;;;5.75;;
65896;SDS011;52677;50.898;10.854;2023-06-10T02:22:14;8.07;;;5.50;;
65896;SDS011;52677;50.898;10.854;2023-06-10T02:24:15;8.15;;;5.13;;
65896;SDS011;52677;50.898;10.854;2023-06-10T02:26:15;8.30;;;4.85;;
65896;SDS011;52677;50.898;10.854;2023-06-10T02:28:15;12.73;;;6.97;;
65896;SDS011;52677;50.898;10.854;2023-06-10T02:30:16;8.02;;;5.68;;
65896;SDS011;52677;50.898;10.854;2023-06-10T02:32:16;11.55;;;5.55;;
65896;SDS011;52677;50.898;10.854;2023-06-10T02:34:17;7.40;;;4.97;;
65896;SDS011;52677;50.898;10.854;2023-06-10T02:36:17;8.73;;;5.72;;
65896;SDS011;52677;50.898;10.854;2023-06-10T02:38:17;12.05;;;5.72;;
65896;SDS011;52677;50.898;10.854;2023-06-10T02:40:18;9.65;;;5.25;;
65896;SDS011;52677;50.898;10.854;2023-06-10T02:42:18;7.63;;;5.30;;
65896;SDS011;52677;50.898;10.854;2023-06-10T02:44:19;8.75;;;5.15;;
65896;SDS011;52677;50.898;10.854;2023-06-10T02:46:20;12.38;;;6.40;;
65896;SDS011;52677;50.898;10.854;2023-06-10T02:48:21;13.68;;;5.60;;
65896;SDS011;52677;50.898;10.854;2023-06-10T02:50:23;8.18;;;5.05;;
65896;SDS011;52677;50.898;10.854;2023-06-10T02:52:23;7.88;;;5.63;;
65896;SDS011;52677;50.898;10.854;2023-06-10T02:54:24;9.88;;;5.68;;
65896;SDS011;52677;50.898;10.854;2023-06-10T02:56:24;10.20;;;5.72;;
65896;SDS011;52677;50.898;10.854;2023-06-10T02:58:25;15.40;;;6.40;;
65896;SDS011;52677;50.898;10.854;2023-06-10T03:00:26;7.82;;;5.82;;
65896;SDS011;52677;50.898;10.854;2023-06-10T03:02:27;9.02;;;6.18;;
65896;SDS011;52677;50.898;10.854;2023-06-10T03:04:28;10.80;;;5.78;;
65896;SDS011;52677;50.898;10.854;2023-06-10T03:06:31;10.50;;;6.07;;
65896;SDS011;52677;50.898;10.854;2023-06-10T03:08:33;11.07;;;5.35;;
65896;SDS011;52677;50.898;10.854;2023-06-10T03:10:33;9.70;;;5.45;;
65896;SDS011;52677;50.898;10.854;2023-06-10T03:12:34;8.60;;;5.47;;
65896;SDS011;52677;50.898;10.854;2023-06-10T03:14:34;12.73;;;6.05;;
65896;SDS011;52677;50.898;10.854;2023-06-10T03:16:34;10.02;;;5.65;;
65896;SDS011;52677;50.898;10.854;2023-06-10T03:18:35;10.30;;;5.85;;
65896;SDS011;52677;50.898;10.854;2023-06-10T03:20:35;9.88;;;6.32;;
65896;SDS011;52677;50.898;10.854;2023-06-10T03:22:37;7.93;;;5.82;;
65896;SDS011;52677;50.898;10.854;2023-06-10T03:24:38;9.43;;;5.60;;
65896;SDS011;52677;50.898;10.854;2023-06-10T03:26:40;11.13;;;6.38;;
65896;SDS011;52677;50.898;10.854;2023-06-10T03:28:40;7.38;;;5.60;;
65896;SDS011;52677;50.898;10.854;2023-06-10T03:30:40;7.63;;;6.20;;
65896;SDS011;52677;50.898;10.854;2023-06-10T03:32:41;10.23;;;6.85;;
65896;SDS011;52677;50.898;10.854;2023-06-10T03:34:41;9.75;;;5.28;;
65896;SDS011;52677;50.898;10.854;2023-06-10T03:36:42;7.35;;;5.57;;
65896;SDS011;52677;50.898;10.854;2023-06-10T03:38:42;13.32;;;6.53;;
65896;SDS011;52677;50.898;10.854;2023-06-10T03:40:43;12.45;;;6.93;;
65896;SDS011;52677;50.898;10.854;2023-06-10T03:42:43;8.80;;;6.03;;
65896;SDS011;52677;50.898;10.854;2023-06-10T03:44:46;14.93;;;6.60;;
65896;SDS011;52677;50.898;10.854;2023-06-10T03:46:46;8.25;;;5.95;;
65896;SDS011;52677;50.898;10.854;2023-06-10T03:48:47;8.68;;;5.70;;
65896;SDS011;52677;50.898;10.854;2023-06-10T03:50:48;11.85;;;6.20;;
65896;SDS011;52677;50.898;10.854;2023-06-10T03:52:50;10.98;;;6.05;;
65896;SDS011;52677;50.898;10.854;2023-06-10T03:54:51;7.32;;;5.60;;
65896;SDS011;52677;50.898;10.854;2023-06-10T03:56:51;7.43;;;5.68;;
65896;SDS011;52677;50.898;10.854;2023-06-10T03:58:51;10.75;;;6.20;;
65896;SDS011;52677;50.898;10.854;2023-06-10T04:00:52;10.18;;;6.45;;
65896;SDS011;52677;50.898;10.854;2023-06-10T04:02:52;7.65;;;5.78;;
65896;SDS011;52677;50.898;10.854;2023-06-10T04:04:53;11.07;;;6.32;;
65896;SDS011;52677;50.898;10.854;2023-06-10T04:06:53;9.15;;;6.50;;
65896;SDS011;52677;50.898;10.854;2023-06-10T04:08:53;11.25;;;6.97;;
65896;SDS011;52677;50.898;10.854;2023-06-10T04:10:54;12.68;;;6.38;;
65896;SDS011;52677;50.898;10.854;2023-06-10T04:12:54;11.98;;;6.60;;
65896;SDS011;52677;50.898;10.854;2023-06-10T04:14:55;8.10;;;5.97;;
65896;SDS011;52677;50.898;10.854;2023-06-10T04:16:55;9.73;;;6.85;;
65896;SDS011;52677;50.898;10.854;2023-06-10T04:18:55;8.30;;;6.57;;
65896;SDS011;52677;50.898;10.854;2023-06-10T04:20:56;10.15;;;6.32;;
65896;SDS011;52677;50.898;10.854;2023-06-10T04:22:56;11.70;;;7.28;;
65896;SDS011;52677;50.898;10.854;2023-06-10T04:24:57;8.02;;;6.47;;
65896;SDS011;52677;50.898;10.854;2023-06-10T04:26:57;6.53;;;5.82;;
65896;SDS011;52677;50.898;10.854;2023-06-10T04:28:58;10.07;;;6.45;;
65896;SDS011;52677;50.898;10.854;2023-06-10T04:30:58;8.93;;;6.55;;
65896;SDS011;52677;50.898;10.854;2023-06-10T04:32:58;8.52;;;6.95;;
65896;SDS011;52677;50.898;10.854;2023-06-10T04:34:59;9.60;;;6.80;;
65896;SDS011;52677;50.898;10.854;2023-06-10T04:37:00;11.25;;;6.60;;
65896;SDS011;52677;50.898;10.854;2023-06-10T04:39:00;9.65;;;6.75;;
65896;SDS011;52677;50.898;10.854;2023-06-10T04:41:01;12.52;;;7.50;;
65896;SDS011;52677;50.898;10.854;2023-06-10T04:43:02;10.45;;;6.25;;
65896;SDS011;52677;50.898;10.854;2023-06-10T04:45:02;7.38;;;6.55;;
65896;SDS011;52677;50.898;10.854;2023-06-10T04:47:03;8.93;;;6.35;;
65896;SDS011;52677;50.898;10.854;2023-06-10T04:49:04;8.00;;;6.35;;
65896;SDS011;52677;50.898;10.854;2023-06-10T04:51:05;9.88;;;7.13;;
65896;SDS011;52677;50.898;10.854;2023-06-10T04:53:05;7.57;;;6.22;;
65896;SDS011;52677;50.898;10.854;2023-06-10T04:55:09;8.75;;;6.35;;
65896;SDS011;52677;50.898;10.854;2023-06-10T04:57:10;9.33;;;6.53;;
65896;SDS011;52677;50.898;10.854;2023-06-10T04:59:11;7.68;;;5.85;;
65896;SDS011;52677;50.898;10.854;2023-06-10T05:01:11;10.13;;;6.38;;
65896;SDS011;52677;50.898;10.854;2023-06-10T05:03:12;8.18;;;6.40;;
65896;SDS011;52677;50.898;10.854;2023-06-10T05:05:12;7.93;;;6.57;;
65896;SDS011;52677;50.898;10.854;2023-06-10T05:07:12;10.30;;;7.53;;
65896;SDS011;52677;50.898;10.854;2023-06-10T05:09:13;12.18;;;7.53;;
65896;SDS011;52677;50.898;10.854;2023-06-10T05:11:13;8.60;;;6.75;;
65896;SDS011;52677;50.898;10.854;2023-06-10T05:13:14;7.93;;;6.45;;
65896;SDS011;52677;50.898;10.854;2023-06-10T05:15:14;9.30;;;6.90;;
65896;SDS011;52677;50.898;10.854;2023-06-10T05:17:14;10.80;;;7.15;;
65896;SDS011;52677;50.898;10.854;2023-06-10T05:19:15;9.07;;;7.20;;
65896;SDS011;52677;50.898;10.854;2023-06-10T05:21:16;9.45;;;6.63;;
65896;SDS011;52677;50.898;10.854;2023-06-10T05:23:16;10.57;;;6.97;;
65896;SDS011;52677;50.898;10.854;2023-06-10T05:25:17;7.68;;;6.55;;
65896;SDS011;52677;50.898;10.854;2023-06-10T05:27:17;9.40;;;6.57;;
65896;SDS011;52677;50.898;10.854;2023-06-10T05:29:17;8.63;;;6.53;;
65896;SDS011;52677;50.898;10.854;2023-06-10T05:31:18;10.02;;;6.65;;
65896;SDS011;52677;50.898;10.854;2023-06-10T05:33:18;7.97;;;6.50;;
65896;SDS011;52677;50.898;10.854;2023-06-10T05:35:19;9.20;;;6.88;;
65896;SDS011;52677;50.898;10.854;2023-06-10T05:37:19;8.10;;;6.07;;
65896;SDS011;52677;50.898;10.854;2023-06-10T05:39:19;8.38;;;6.50;;
65896;SDS011;52677;50.898;10.854;2023-06-10T05:41:20;8.48;;;6.72;;
65896;SDS011;52677;50.898;10.854;2023-06-10T05:43:22;10.07;;;7.00;;
65896;SDS011;52677;50.898;10.854;2023-06-10T05:45:22;8.65;;;5.60;;
65896;SDS011;52677;50.898;10.854;2023-06-10T05:47:23;9.88;;;6.63;;
65896;SDS011;52677;50.898;10.854;2023-06-10T05:49:23;11.27;;;6.75;;
65896;SDS011;52677;50.898;10.854;2023-06-10T05:51:24;10.52;;;5.82;;
65896;SDS011;52677;50.898;10.854;2023-06-10T05:53:25;7.53;;;5.80;;
65896;SDS011;52677;50.898;10.854;2023-06-10T05:55:25;8.07;;;5.68;;
65896;SDS011;52677;50.898;10.854;2023-06-10T05:57:26;8.55;;;6.30;;
65896;SDS011;52677;50.898;10.854;2023-06-10T05:59:26;9.68;;;6.78;;
65896;SDS011;52677;50.898;10.854;2023-06-10T06:01:26;9.70;;;6.03;;
65896;SDS011;52677;50.898;10.854;2023-06-10T06:03:27;11.10;;;5.93;;
65896;SDS011;52677;50.898;10.854;2023-06-10T06:05:28;8.07;;;5.47;;
65896;SDS011;52677;50.898;10.854;2023-06-10T06:07:34;11.07;;;6.35;;
65896;SDS011;52677;50.898;10.854;2023-06-10T06:09:35;11.35;;;6.82;;
65896;SDS011;52677;50.898;10.854;2023-06-10T06:11:35;8.88;;;6.30;;
65896;SDS011;52677;50.898;10.854;2023-06-10T06:13:35;8.73;;;5.90;;
65896;SDS011;52677;50.898;10.854;2023-06-10T06:15:36;8.63;;;6.35;;
65896;SDS011;52677;50.898;10.854;2023-06-10T06:17:36;11.23;;;6.13;;
65896;SDS011;52677;50.898;10.854;2023-06-10T06:19:37;9.45;;;6.03;;
65896;SDS011;52677;50.898;10.854;2023-06-10T06:21:37;8.02;;;5.72;;
65896;SDS011;52677;50.898;10.854;2023-06-10T06:23:37;12.75;;;7.13;;
65896;SDS011;52677;50.898;10.854;2023-06-10T06:25:38;11.57;;;6.85;;
65896;SDS011;52677;50.898;10.854;2023-06-10T06:27:39;8.80;;;6.03;;
65896;SDS011;52677;50.898;10.854;2023-06-10T06:29:39;11.90;;;6.93;;
65896;SDS011;52677;50.898;10.854;2023-06-10T06:31:39;8.68;;;6.30;;
65896;SDS011;52677;50.898;10.854;2023-06-10T06:33:40;10.98;;;6.93;;
65896;SDS011;52677;50.898;10.854;2023-06-10T06:35:40;10.85;;;6.82;;
65896;SDS011;52677;50.898;10.854;2023-06-10T06:37:40;8.07;;;6.90;;
65896;SDS011;52677;50.898;10.854;2023-06-10T06:39:41;8.05;;;7.03;;
65896;SDS011;52677;50.898;10.854;2023-06-10T06:41:41;9.40;;;7.30;;
65896;SDS011;52677;50.898;10.854;2023-06-10T06:43:41;13.10;;;7.30;;
65896;SDS011;52677;50.898;10.854;2023-06-10T06:45:43;9.77;;;7.00;;
65896;SDS011;52677;50.898;10.854;2023-06-10T06:47:43;11.25;;;7.15;;
65896;SDS011;52677;50.898;10.854;2023-06-10T06:49:43;10.10;;;7.45;;
65896;SDS011;52677;50.898;10.854;2023-06-10T06:51:44;11.60;;;7.50;;
65896;SDS011;52677;50.898;10.854;2023-06-10T06:53:44;10.13;;;7.32;;
65896;SDS011;52677;50.898;10.854;2023-06-10T06:55:45;12.80;;;7.45;;
65896;SDS011;52677;50.898;10.854;2023-06-10T06:57:45;7.82;;;6.95;;
65896;SDS011;52677;50.898;10.854;2023-06-10T06:59:46;13.30;;;7.65;;
65896;SDS011;52677;50.898;10.854;2023-06-10T07:01:46;10.77;;;7.40;;
65896;SDS011;52677;50.898;10.854;2023-06-10T07:03:47;11.75;;;7.18;;
65896;SDS011;52677;50.898;10.854;2023-06-10T07:05:47;12.23;;;7.63;;
65896;SDS011;52677;50.898;10.854;2023-06-10T07:07:47;10.38;;;7.82;;
65896;SDS011;52677;50.898;10.854;2023-06-10T07:09:47;11.77;;;8.00;;
65896;SDS011;52677;50.898;10.854;2023-06-10T07:11:48;9.65;;;7.53;;
65896;SDS011;52677;50.898;10.854;2023-06-10T07:13:48;10.82;;;7.20;;
65896;SDS011;52677;50.898;10.854;2023-06-10T07:15:48;13.82;;;7.28;;
65896;SDS011;52677;50.898;10.854;2023-06-10T07:17:49;10.32;;;8.32;;
65896;SDS011;52677;50.898;10.854;2023-06-10T07:19:50;11.38;;;8.27;;
65896;SDS011;52677;50.898;10.854;2023-06-10T07:21:51;14.77;;;8.20;;
65896;SDS011;52677;50.898;10.854;2023-06-10T07:23:51;9.65;;;7.97;;
65896;SDS011;52677;50.898;10.854;2023-06-10T07:25:53;9.93;;;7.82;;
65896;SDS011;52677;50.898;10.854;2023-06-10T07:27:53;11.82;;;8.40;;
65896;SDS011;52677;50.898;10.854;2023-06-10T07:29:54;14.25;;;8.70;;
65896;SDS011;52677;50.898;10.854;2023-06-10T07:31:54;11.13;;;8.10;;
65896;SDS011;52677;50.898;10.854;2023-06-10T07:33:54;13.45;;;8.60;;
65896;SDS011;52677;50.898;10.854;2023-06-10T07:35:55;16.65;;;8.82;;
65896;SDS011;52677;50.898;10.854;2023-06-10T07:37:55;13.35;;;8.43;;
65896;SDS011;52677;50.898;10.854;2023-06-10T07:39:56;10.70;;;8.25;;
65896;SDS011;52677;50.898;10.854;2023-06-10T07:41:56;10.43;;;8.02;;
65896;SDS011;52677;50.898;10.854;2023-06-10T07:43:57;13.73;;;8.25;;
65896;SDS011;52677;50.898;10.854;2023-06-10T07:45:57;11.32;;;8.77;;
65896;SDS011;52677;50.898;10.854;2023-06-10T07:47:57;13.50;;;8.57;;
65896;SDS011;52677;50.898;10.854;2023-06-10T07:49:58;9.38;;;8.15;;
65896;SDS011;52677;50.898;10.854;2023-06-10T07:51:58;11.43;;;8.10;;
65896;SDS011;52677;50.898;10.854;2023-06-10T07:53:58;10.82;;;8.35;;
65896;SDS011;52677;50.898;10.854;2023-06-10T07:55:59;11.35;;;9.07;;
65896;SDS011;52677;50.898;10.854;2023-06-10T07:57:59;11.52;;;8.85;;
65896;SDS011;52677;50.898;10.854;2023-06-10T07:59:59;11.40;;;8.80;;
65896;SDS011;52677;50.898;10.854;2023-06-10T08:02:01;12.30;;;9.02;;
65896;SDS011;52677;50.898;10.854;2023-06-10T08:04:03;13.55;;;8.60;;
65896;SDS011;52677;50.898;10.854;2023-06-10T08:06:03;10.77;;;8.67;;
65896;SDS011;52677;50.898;10.854;2023-06-10T08:08:05;11.77;;;8.53;;
65896;SDS011;52677;50.898;10.854;2023-06-10T08:10:06;12.02;;;8.77;;
65896;SDS011;52677;50.898;10.854;2023-06-10T08:12:07;13.23;;;9.25;;
65896;SDS011;52677;50.898;10.854;2023-06-10T08:14:07;12.55;;;8.95;;
65896;SDS011;52677;50.898;10.854;2023-06-10T08:16:08;12.50;;;9.25;;
65896;SDS011;52677;50.898;10.854;2023-06-10T08:18:08;10.93;;;8.48;;
65896;SDS011;52677;50.898;10.854;2023-06-10T08:20:08;12.02;;;8.80;;
65896;SDS011;52677;50.898;10.854;2023-06-10T08:22:09;10.30;;;9.18;;
65896;SDS011;52677;50.898;10.854;2023-06-10T08:24:10;9.70;;;8.70;;
65896;SDS011;52677;50.898;10.854;2023-06-10T08:26:10;11.30;;;8.77;;
65896;SDS011;52677;50.898;10.854;2023-06-10T08:28:10;10.52;;;9.02;;
65896;SDS011;52677;50.898;10.854;2023-06-10T08:30:11;10.63;;;8.55;;
65896;SDS011;52677;50.898;10.854;2023-06-10T08:32:13;10.48;;;8.75;;
65896;SDS011;52677;50.898;10.854;2023-06-10T08:34:13;11.27;;;8.88;;
65896;SDS011;52677;50.898;10.854;2023-06-10T08:36:13;9.68;;;8.60;;
65896;SDS011;52677;50.898;10.854;2023-06-10T08:38:14;12.63;;;9.57;;
65896;SDS011;52677;50.898;10.854;2023-06-10T08:40:16;12.75;;;9.77;;
65896;SDS011;52677;50.898;10.854;2023-06-10T08:42:22;8.52;;;7.75;;
65896;SDS011;52677;50.898;10.854;2023-06-10T08:44:28;10.57;;;8.75;;
65896;SDS011;52677;50.898;10.854;2023-06-10T08:46:29;10.38;;;8.98;;
65896;SDS011;52677;50.898;10.854;2023-06-10T08:48:31;16.40;;;9.40;;
65896;SDS011;52677;50.898;10.854;2023-06-10T08:50:35;13.18;;;9.05;;
65896;SDS011;52677;50.898;10.854;2023-06-10T08:52:37;10.52;;;8.90;;
65896;SDS011;52677;50.898;10.854;2023-06-10T08:54:41;10.40;;;8.60;;
65896;SDS011;52677;50.898;10.854;2023-06-10T08:56:45;11.32;;;8.73;;
65896;SDS011;52677;50.898;10.854;2023-06-10T08:58:49;10.38;;;8.55;;
65896;SDS011;52677;50.898;10.854;2023-06-10T09:00:49;10.77;;;9.07;;
65896;SDS011;52677;50.898;10.854;2023-06-10T09:02:50;13.68;;;9.18;;
65896;SDS011;52677;50.898;10.854;2023-06-10T09:04:51;12.02;;;8.90;;
65896;SDS011;52677;50.898;10.854;2023-06-10T09:06:52;13.18;;;8.48;;
65896;SDS011;52677;50.898;10.854;2023-06-10T09:08:53;13.70;;;8.77;;
65896;SDS011;52677;50.898;10.854;2023-06-10T09:10:54;12.40;;;8.85;;
65896;SDS011;52677;50.898;10.854;2023-06-10T09:12:54;14.75;;;9.45;;
65896;SDS011;52677;50.898;10.854;2023-06-10T09:14:55;12.85;;;9.57;;
65896;SDS011;52677;50.898;10.854;2023-06-10T09:16:56;10.13;;;8.90;;
65896;SDS011;52677;50.898;10.854;2023-06-10T09:18:57;9.77;;;8.80;;
65896;SDS011;52677;50.898;10.854;2023-06-10T09:20:58;10.70;;;9.07;;
65896;SDS011;52677;50.898;10.854;2023-06-10T09:22:59;12.90;;;9.07;;
65896;SDS011;52677;50.898;10.854;2023-06-10T09:25:08;13.10;;;8.70;;
65896;SDS011;52677;50.898;10.854;2023-06-10T09:27:10;10.63;;;8.45;;
65896;SDS011;52677;50.898;10.854;2023-06-10T09:29:10;10.63;;;8.68;;
65896;SDS011;52677;50.898;10.854;2023-06-10T09:31:11;9.30;;;8.38;;
65896;SDS011;52677;50.898;10.854;2023-06-10T09:33:13;14.35;;;8.50;;
65896;SDS011;52677;50.898;10.854;2023-06-10T09:35:17;8.95;;;8.05;;
65896;SDS011;52677;50.898;10.854;2023-06-10T09:37:21;14.20;;;8.95;;
65896;SDS011;52677;50.898;10.854;2023-06-10T09:39:22;10.38;;;8.30;;
65896;SDS011;52677;50.898;10.854;2023-06-10T09:41:31;9.20;;;8.18;;
65896;SDS011;52677;50.898;10.854;2023-06-10T09:43:43;10.25;;;8.07;;
65896;SDS011;52677;50.898;10.854;2023-06-10T09:45:47;10.32;;;7.78;;
65896;SDS011;52677;50.898;10.854;2023-06-10T09:47:51;10.10;;;7.38;;
65896;SDS011;52677;50.898;10.854;2023-06-10T09:49:53;10.25;;;7.93;;
65896;SDS011;52677;50.898;10.854;2023-06-10T09:51:54;13.77;;;9.32;;
65896;SDS011;52677;50.898;10.854;2023-06-10T09:53:54;9.20;;;7.88;;
65896;SDS011;52677;50.898;10.854;2023-06-10T09:55:55;9.32;;;8.32;;
65896;SDS011;52677;50.898;10.854;2023-06-10T09:57:55;8.73;;;7.82;;
65896;SDS011;52677;50.898;10.854;2023-06-10T09:59:55;9.80;;;7.93;;
65896;SDS011;52677;50.898;10.854;2023-06-10T10:01:56;9.30;;;7.53;;
65896;SDS011;52677;50.898;10.854;2023-06-10T10:03:57;9.38;;;7.63;;
65896;SDS011;52677;50.898;10.854;2023-06-10T10:05:58;8.95;;;7.50;;
65896;SDS011;52677;50.898;10.854;2023-06-10T10:10:00;11.70;;;7.88;;
65896;SDS011;52677;50.898;10.854;2023-06-10T10:12:01;10.02;;;8.02;;
65896;SDS011;52677;50.898;10.854;2023-06-10T10:14:02;9.52;;;7.40;;
65896;SDS011;52677;50.898;10.854;2023-06-10T10:16:06;10.15;;;8.27;;
65896;SDS011;52677;50.898;10.854;2023-06-10T10:18:11;10.68;;;8.05;;
65896;SDS011;52677;50.898;10.854;2023-06-10T10:20:18;10.75;;;8.02;;
65896;SDS011;52677;50.898;10.854;2023-06-10T10:22:25;8.82;;;7.47;;
65896;SDS011;52677;50.898;10.854;2023-06-10T10:24:33;7.97;;;7.15;;
65896;SDS011;52677;50.898;10.854;2023-06-10T10:26:36;9.82;;;7.20;;
65896;SDS011;52677;50.898;10.854;2023-06-10T10:28:41;10.35;;;7.47;;
65896;SDS011;52677;50.898;10.854;2023-06-10T10:30:46;9.38;;;7.60;;
65896;SDS011;52677;50.898;10.854;2023-06-10T10:33:00;11.93;;;7.55;;
65896;SDS011;52677;50.898;10.854;2023-06-10T10:37:05;9.13;;;7.40;;
65896;SDS011;52677;50.898;10.854;2023-06-10T10:39:06;8.55;;;7.20;;
65896;SDS011;52677;50.898;10.854;2023-06-10T10:41:07;7.97;;;6.72;;
65896;SDS011;52677;50.898;10.854;2023-06-10T10:43:08;9.07;;;7.57;;
65896;SDS011;52677;50.898;10.854;2023-06-10T10:45:10;8.10;;;7.30;;
65896;SDS011;52677;50.898;10.854;2023-06-10T10:47:10;11.68;;;6.85;;
65896;SDS011;52677;50.898;10.854;2023-06-10T10:49:13;6.67;;;6.03;;
65896;SDS011;52677;50.898;10.854;2023-06-10T10:51:15;8.93;;;6.90;;
65896;SDS011;52677;50.898;10.854;2023-06-10T10:53:15;8.52;;;6.93;;
65896;SDS011;52677;50.898;10.854;2023-06-10T10:55:20;7.88;;;6.57;;
65896;SDS011;52677;50.898;10.854;2023-06-10T10:57:22;8.27;;;7.13;;
65896;SDS011;52677;50.898;10.854;2023-06-10T11:01:23;10.03;;;6.87;;
65896;SDS011;52677;50.898;10.854;2023-06-10T11:03:27;13.43;;;8.43;;
65896;SDS011;52677;50.898;10.854;2023-06-10T11:05:37;8.65;;;6.93;;
65896;SDS011;52677;50.898;10.854;2023-06-10T11:07:39;8.50;;;7.60;;
65896;SDS011;52677;50.898;10.854;2023-06-10T11:09:40;7.78;;;6.93;;
65896;SDS011;52677;50.898;10.854;2023-06-10T11:11:59;10.80;;;7.75;;
65896;SDS011;52677;50.898;10.854;2023-06-10T11:16:04;10.32;;;8.32;;
65896;SDS011;52677;50.898;10.854;2023-06-10T11:18:12;9.60;;;8.02;;
65896;SDS011;52677;50.898;10.854;2023-06-10T11:20:34;9.25;;;8.25;;
65896;SDS011;52677;50.898;10.854;2023-06-10T11:23:02;9.60;;;7.93;;
65896;SDS011;52677;50.898;10.854;2023-06-10T11:25:02;11.57;;;7.95;;
65896;SDS011;52677;50.898;10.854;2023-06-10T11:27:15;10.90;;;8.40;;
65896;SDS011;52677;50.898;10.854;2023-06-10T11:29:20;10.57;;;8.05;;
65896;SDS011;52677;50.898;10.854;2023-06-10T11:31:31;11.37;;;7.93;;
65896;SDS011;52677;50.898;10.854;2023-06-10T11:33:33;10.57;;;8.38;;
65896;SDS011;52677;50.898;10.854;2023-06-10T11:35:37;10.32;;;8.10;;
65896;SDS011;52677;50.898;10.854;2023-06-10T11:37:37;11.13;;;8.55;;
65896;SDS011;52677;50.898;10.854;2023-06-10T11:39:37;9.00;;;8.10;;
65896;SDS011;52677;50.898;10.854;2023-06-10T11:41:38;10.38;;;8.30;;
65896;SDS011;52677;50.898;10.854;2023-06-10T11:43:43;10.05;;;7.88;;
65896;SDS011;52677;50.898;10.854;2023-06-10T11:45:44;9.10;;;8.18;;
65896;SDS011;52677;50.898;10.854;2023-06-10T11:47:58;9.38;;;7.85;;
65896;SDS011;52677;50.898;10.854;2023-06-10T11:49:59;11.40;;;8.45;;
65896;SDS011;52677;50.898;10.854;2023-06-10T11:51:59;13.30;;;8.07;;
65896;SDS011;52677;50.898;10.854;2023-06-10T11:53:59;9.65;;;8.57;;
65896;SDS011;52677;50.898;10.854;2023-06-10T11:56:00;9.13;;;8.10;;
65896;SDS011;52677;50.898;10.854;2023-06-10T11:58:01;9.07;;;8.05;;
65896;SDS011;52677;50.898;10.854;2023-06-10T12:00:03;9.25;;;8.35;;
65896;SDS011;52677;50.898;10.854;2023-06-10T12:02:06;12.20;;;8.75;;
65896;SDS011;52677;50.898;10.854;2023-06-10T12:04:15;8.95;;;8.05;;
65896;SDS011;52677;50.898;10.854;2023-06-10T12:06:18;10.48;;;8.57;;